Time,TemperatureF,DewpointF,PressureIn,WindDirection,WindDirectionDegrees,WindSpeedMPH,WindSpeedGustMPH,Humidity,HourlyPrecipIn,Conditions,Clouds,dailyrainin,SoftwareType,DateUTC
2013-02-02 00:00:00,18.4,13.8,30.18,NW,309,6.1,19.6,82,0.00,-SN,,0.00,WeatherDisplay:10.37,2013-02-02 05:00:00,
2013-02-02 00:01:00,18.4,13.8,30.18,West,263,4.9,19.6,82,0.00,-SN,,0.00,WeatherDisplay:10.37,2013-02-02 05:01:00,
2013-02-02 00:03:00,18.4,13.5,30.18,West,275,5.8,13.8,81,0.00,SCT,,0.00,WeatherDisplay:10.37,2013-02-02 05:03:00,
2013-02-02 00:08:00,18.6,13.2,30.18,West,279,7.1,17.0,79,0.00,SCT,,0.00,WeatherDisplay:10.37,2013-02-02 05:08:00,
2013-02-02 00:13:00,18.7,12.4,30.18,WNW,302,3.8,10.4,76,0.00,SCT,,0.00,WeatherDisplay:10.37,2013-02-02 05:13:00,
2013-02-02 00:19:00,18.7,11.5,30.18,WNW,301,9.6,19.6,73,0.00,SCT,,0.00,WeatherDisplay:10.37,2013-02-02 05:19:00,
2013-02-02 00:24:00,18.7,10.5,30.18,NW,321,13.3,20.7,70,0.00,SCT,,0.00,WeatherDisplay:10.37,2013-02-02 05:24:00,
2013-02-02 00:29:00,18.6,9.8,30.18,WNW,286,9.8,18.4,68,0.00,SCT,,0.00,WeatherDisplay:10.37,2013-02-02 05:29:00,
2013-02-02 00:34:00,18.5,9.4,30.19,West,269,9.0,12.0,67,0.00,SCT,,0.00,WeatherDisplay:10.37,2013-02-02 05:34:00,
2013-02-02 00:39:00,18.4,9.3,30.18,WNW,298,10.9,20.7,67,0.00,SCT,,0.00,WeatherDisplay:10.37,2013-02-02 05:39:00,
2013-02-02 00:45:00,18.4,9.3,30.18,West,281,14.8,20.0,67,0.00,SCT,,0.00,WeatherDisplay:10.37,2013-02-02 05:45:00,
2013-02-02 00:50:00,18.2,9.1,30.18,WSW,256,13.2,23.0,67,0.00,SCT,,0.00,WeatherDisplay:10.37,2013-02-02 05:50:00,
2013-02-02 00:55:00,18.1,9.3,30.19,West,265,6.0,13.8,68,0.00,SCT,,0.00,WeatherDisplay:10.37,2013-02-02 05:55:00,
2013-02-02 01:00:00,18.0,9.2,30.19,West,280,5.7,11.5,68,0.00,SCT,,0.00,WeatherDisplay:10.37,2013-02-02 06:00:00,
2013-02-02 01:05:00,17.9,9.4,30.19,WNW,287,5.4,6.9,69,0.00,SCT,,0.00,WeatherDisplay:10.37,2013-02-02 06:05:00,
2013-02-02 01:10:00,17.7,8.9,30.20,WNW,292,3.3,5.8,68,0.00,SCT,,0.00,WeatherDisplay:10.37,2013-02-02 06:10:00,
2013-02-02 01:15:00,17.6,8.8,30.20,WNW,296,11.2,19.6,68,0.00,SCT,,0.00,WeatherDisplay:10.37,2013-02-02 06:15:00,
2013-02-02 01:20:00,17.4,8.6,30.20,West,276,6.2,14.0,68,0.00,SCT,,0.00,WeatherDisplay:10.37,2013-02-02 06:20:00,
2013-02-02 01:25:00,17.3,8.5,30.20,West,271,4.5,8.1,68,0.00,SCT,,0.00,WeatherDisplay:10.37,2013-02-02 06:25:00,
2013-02-02 01:30:00,17.2,8.4,30.20,NNW,335,5.4,18.0,68,0.00,SCT,,0.00,WeatherDisplay:10.37,2013-02-02 06:30:00,
2013-02-02 01:36:00,17.0,8.3,30.20,West,272,8.6,20.0,68,0.00,SCT,,0.00,WeatherDisplay:10.37,2013-02-02 06:36:00,
2013-02-02 01:41:00,17.0,8.6,30.20,WNW,299,8.3,17.3,69,0.00,SCT,,0.00,WeatherDisplay:10.37,2013-02-02 06:41:00,
2013-02-02 01:46:00,17.0,7.9,30.20,West,277,7.7,10.4,67,0.00,SCT,,0.00,WeatherDisplay:10.37,2013-02-02 06:46:00,
2013-02-02 01:51:00,16.8,8.1,30.20,WNW,302,6.4,9.2,68,0.00,SCT,,0.00,WeatherDisplay:10.37,2013-02-02 06:51:00,
2013-02-02 01:56:00,16.8,8.1,30.21,NNW,337,5.0,15.0,68,0.00,SCT,,0.00,WeatherDisplay:10.37,2013-02-02 06:56:00,
2013-02-02 02:02:00,16.6,7.9,30.21,NW,326,4.0,12.7,68,0.00,FEW,,0.00,WeatherDisplay:10.37,2013-02-02 07:02:00,
2013-02-02 02:07:00,16.5,8.1,30.21,NW,321,3.4,8.1,69,0.00,FEW,,0.00,WeatherDisplay:10.37,2013-02-02 07:07:00,
2013-02-02 02:12:00,16.3,7.9,30.21,West,275,6.2,12.0,69,0.00,FEW,,0.00,WeatherDisplay:10.37,2013-02-02 07:12:00,
2013-02-02 02:17:00,16.2,7.5,30.21,West,263,5.0,6.9,68,0.00,FEW,,0.00,WeatherDisplay:10.37,2013-02-02 07:17:00,
2013-02-02 02:23:00,16.1,7.7,30.22,NW,313,2.9,6.0,69,0.00,FEW,,0.00,WeatherDisplay:10.37,2013-02-02 07:23:00,
2013-02-02 02:28:00,16.0,7.6,30.22,NW,311,1.3,6.9,69,0.00,FEW,,0.00,WeatherDisplay:10.37,2013-02-02 07:28:00,
2013-02-02 02:33:00,15.9,7.5,30.22,WNW,293,2.3,3.5,69,0.00,FEW,,0.00,WeatherDisplay:10.37,2013-02-02 07:33:00,
2013-02-02 02:38:00,15.8,7.4,30.22,WNW,300,3.9,5.8,69,0.00,FEW,,0.00,WeatherDisplay:10.37,2013-02-02 07:38:00,
2013-02-02 02:43:00,15.7,7.6,30.22,WNW,287,3.3,10.4,70,0.00,FEW,,0.00,WeatherDisplay:10.37,2013-02-02 07:43:00,
2013-02-02 02:48:00,15.7,7.3,30.22,WNW,299,5.8,11.0,69,0.00,FEW,,0.00,WeatherDisplay:10.37,2013-02-02 07:48:00,
2013-02-02 02:54:00,15.9,7.5,30.22,WNW,289,5.1,5.1,69,0.00,FEW,,0.00,WeatherDisplay:10.37,2013-02-02 07:54:00,
2013-02-02 02:59:00,15.9,7.5,30.22,NW,320,2.1,3.5,69,0.00,FEW,,0.00,WeatherDisplay:10.37,2013-02-02 07:59:00,
2013-02-02 03:06:00,15.8,7.4,30.22,WNW,294,2.6,4.6,69,0.00,FEW,,0.00,WeatherDisplay:10.37,2013-02-02 08:06:00,
2013-02-02 03:11:00,15.7,7.3,30.22,WNW,302,1.9,4.6,69,0.00,SCT,,0.00,WeatherDisplay:10.37,2013-02-02 08:11:00,
2013-02-02 03:16:00,15.5,7.5,30.22,NNW,337,4.8,9.0,70,0.00,SCT,,0.00,WeatherDisplay:10.37,2013-02-02 08:16:00,
2013-02-02 03:21:00,15.4,7.7,30.22,NNW,329,2.7,3.5,71,0.00,SCT,,0.00,WeatherDisplay:10.37,2013-02-02 08:21:00,
2013-02-02 03:27:00,15.2,7.5,30.22,NNE,14,2.1,5.0,71,0.00,SCT,,0.00,WeatherDisplay:10.37,2013-02-02 08:27:00,
2013-02-02 03:32:00,15.1,7.1,30.22,NNW,327,2.7,4.6,70,0.00,SCT,,0.00,WeatherDisplay:10.37,2013-02-02 08:32:00,
2013-02-02 03:37:00,15.1,7.1,30.22,NNW,327,0.8,3.5,70,0.00,SCT,,0.00,WeatherDisplay:10.37,2013-02-02 08:37:00,
2013-02-02 03:42:00,15.0,7.3,30.22,NW,309,3.5,6.9,71,0.00,SCT,,0.00,WeatherDisplay:10.37,2013-02-02 08:42:00,
2013-02-02 03:47:00,14.8,7.4,30.22,WNW,289,1.1,3.5,72,0.00,SCT,,0.00,WeatherDisplay:10.37,2013-02-02 08:47:00,
2013-02-02 03:52:00,14.7,7.0,30.22,WNW,294,1.4,3.5,71,0.00,SCT,,0.00,WeatherDisplay:10.37,2013-02-02 08:52:00,
2013-02-02 03:57:00,14.7,6.7,30.23,NW,317,1.5,4.6,70,0.00,SCT,,0.00,WeatherDisplay:10.37,2013-02-02 08:57:00,
2013-02-02 04:03:00,14.6,6.9,30.23,NW,325,0.6,3.5,71,0.00,SCT,,0.00,WeatherDisplay:10.37,2013-02-02 09:03:00,
2013-02-02 04:08:00,14.5,6.8,30.23,NW,306,1.7,4.6,71,0.00,SCT,,0.00,WeatherDisplay:10.37,2013-02-02 09:08:00,
2013-02-02 04:13:00,14.4,6.7,30.23,NW,316,0.2,2.3,71,0.00,SCT,,0.00,WeatherDisplay:10.37,2013-02-02 09:13:00,
2013-02-02 04:18:00,14.3,6.6,30.24,NW,315,0.0,2.3,71,0.00,SCT,,0.00,WeatherDisplay:10.37,2013-02-02 09:18:00,
2013-02-02 04:24:00,14.2,6.5,30.23,NW,315,0.0,0.0,71,0.00,SCT,,0.00,WeatherDisplay:10.37,2013-02-02 09:24:00,
2013-02-02 04:29:00,14.1,6.4,30.23,NW,315,0.0,0.0,71,0.00,SCT,,0.00,WeatherDisplay:10.37,2013-02-02 09:29:00,
2013-02-02 04:34:00,14.0,6.6,30.23,NW,315,0.8,2.3,72,0.00,SCT,,0.00,WeatherDisplay:10.37,2013-02-02 09:34:00,
2013-02-02 04:39:00,14.0,6.6,30.23,NW,315,0.3,1.2,72,0.00,SCT,,0.00,WeatherDisplay:10.37,2013-02-02 09:39:00,
2013-02-02 04:44:00,13.9,6.5,30.23,NW,315,0.0,0.0,72,0.00,SCT,,0.00,WeatherDisplay:10.37,2013-02-02 09:44:00,
2013-02-02 04:49:00,13.9,6.8,30.23,NW,315,0.2,1.0,73,0.00,SCT,,0.00,WeatherDisplay:10.37,2013-02-02 09:49:00,
2013-02-02 04:54:00,13.8,6.7,30.22,NW,315,0.6,1.2,73,0.00,SCT,,0.00,WeatherDisplay:10.37,2013-02-02 09:54:00,
2013-02-02 04:59:00,13.7,6.6,30.23,NNW,337,1.1,3.5,73,0.00,SCT,,0.00,WeatherDisplay:10.37,2013-02-02 09:59:00,
2013-02-02 05:05:00,13.6,6.5,30.23,North,351,0.4,2.3,73,0.00,SCT,,0.00,WeatherDisplay:10.37,2013-02-02 10:05:00,
2013-02-02 05:10:00,13.5,6.5,30.23,North,351,0.1,2.3,73,0.00,SCT,,0.00,WeatherDisplay:10.37,2013-02-02 10:10:00,
2013-02-02 05:15:00,13.4,6.4,30.22,North,351,0.4,2.3,73,0.00,SCT,,0.00,WeatherDisplay:10.37,2013-02-02 10:15:00,
2013-02-02 05:20:00,13.3,6.6,30.22,North,351,0.1,1.2,74,0.00,SCT,,0.00,WeatherDisplay:10.37,2013-02-02 10:20:00,
2013-02-02 05:26:00,13.3,6.6,30.23,North,351,0.0,1.2,74,0.00,SCT,,0.00,WeatherDisplay:10.37,2013-02-02 10:26:00,
2013-02-02 05:31:00,13.2,6.5,30.23,North,351,0.0,0.0,74,0.00,SCT,,0.00,WeatherDisplay:10.37,2013-02-02 10:31:00,
2013-02-02 05:36:00,13.2,6.5,30.23,North,5,0.0,1.2,74,0.00,SCT,,0.00,WeatherDisplay:10.37,2013-02-02 10:36:00,
2013-02-02 05:41:00,13.1,6.7,30.22,NE,40,0.4,2.3,75,0.00,SCT,,0.00,WeatherDisplay:10.37,2013-02-02 10:41:00,
2013-02-02 05:46:00,12.9,6.8,30.22,NE,40,0.4,1.2,76,0.00,SCT,,0.00,WeatherDisplay:10.37,2013-02-02 10:46:00,
2013-02-02 05:51:00,12.8,6.7,30.22,NE,44,1.3,2.3,76,0.00,SCT,,0.00,WeatherDisplay:10.37,2013-02-02 10:51:00,
2013-02-02 05:56:00,12.7,6.9,30.22,NE,49,1.2,2.3,77,0.00,SCT,,0.00,WeatherDisplay:10.37,2013-02-02 10:56:00,
2013-02-02 06:01:00,12.6,6.8,30.23,East,80,0.0,2.3,77,0.00,SCT,,0.00,WeatherDisplay:10.37,2013-02-02 11:01:00,
2013-02-02 06:06:00,12.6,6.8,30.23,East,80,0.1,1.2,77,0.00,SCT,,0.00,WeatherDisplay:10.37,2013-02-02 11:06:00,
2013-02-02 06:11:00,12.7,6.9,30.23,East,80,0.0,0.0,77,0.00,CLR,,0.00,WeatherDisplay:10.37,2013-02-02 11:11:00,
2013-02-02 06:17:00,12.7,6.9,30.23,East,90,0.3,2.3,77,0.00,CLR,,0.00,WeatherDisplay:10.37,2013-02-02 11:17:00,
2013-02-02 06:22:00,12.8,6.9,30.23,East,91,0.4,2.3,77,0.00,CLR,,0.00,WeatherDisplay:10.37,2013-02-02 11:22:00,
2013-02-02 06:27:00,12.8,6.9,30.23,East,92,0.1,1.0,77,0.00,CLR,,0.00,WeatherDisplay:10.37,2013-02-02 11:27:00,
2013-02-02 06:32:00,12.6,6.8,30.23,East,92,0.1,1.0,77,0.00,CLR,,0.00,WeatherDisplay:10.37,2013-02-02 11:32:00,
2013-02-02 06:37:00,12.4,6.6,30.23,East,98,1.4,2.3,77,0.00,CLR,,0.00,WeatherDisplay:10.37,2013-02-02 11:37:00,
2013-02-02 06:43:00,12.2,6.7,30.23,ESE,115,1.3,2.3,78,0.00,CLR,,0.00,WeatherDisplay:10.37,2013-02-02 11:43:00,
2013-02-02 06:48:00,12.1,6.8,30.23,ESE,115,1.0,2.3,79,0.00,CLR,,0.00,WeatherDisplay:10.37,2013-02-02 11:48:00,
2013-02-02 06:53:00,12.0,6.7,30.23,ESE,115,0.0,0.0,79,0.00,CLR,,0.00,WeatherDisplay:10.37,2013-02-02 11:53:00,
2013-02-02 06:58:00,11.9,6.6,30.23,ESE,114,0.1,2.0,79,0.00,CLR,,0.00,WeatherDisplay:10.37,2013-02-02 11:58:00,
2013-02-02 07:03:00,11.9,6.6,30.24,ESE,115,0.0,0.0,79,0.00,FEW,,0.00,WeatherDisplay:10.37,2013-02-02 12:03:00,
2013-02-02 07:09:00,11.9,6.9,30.24,ESE,114,0.3,0.0,80,0.00,FEW,,0.00,WeatherDisplay:10.37,2013-02-02 12:09:00,
2013-02-02 07:14:00,11.9,6.9,30.24,ESE,115,0.9,2.3,80,0.00,FEW,,0.00,WeatherDisplay:10.37,2013-02-02 12:14:00,
2013-02-02 07:19:00,11.9,6.9,30.24,ESE,115,0.1,1.2,80,0.00,FEW,,0.00,WeatherDisplay:10.37,2013-02-02 12:19:00,
2013-02-02 07:24:00,12.0,7.3,30.24,ESE,115,0.5,2.3,81,0.00,FEW,,0.00,WeatherDisplay:10.37,2013-02-02 12:24:00,
2013-02-02 07:29:00,12.0,7.3,30.24,ESE,115,0.5,1.2,81,0.00,FEW,,0.00,WeatherDisplay:10.37,2013-02-02 12:29:00,
2013-02-02 07:34:00,12.1,7.4,30.24,ESE,115,0.0,0.0,81,0.00,FEW,,0.00,WeatherDisplay:10.37,2013-02-02 12:34:00,
2013-02-02 07:40:00,12.2,7.5,30.24,ESE,115,0.1,2.3,81,0.00,FEW,,0.00,WeatherDisplay:10.37,2013-02-02 12:40:00,
2013-02-02 07:45:00,12.4,7.7,30.24,ESE,114,1.3,3.5,81,0.00,FEW,,0.00,WeatherDisplay:10.37,2013-02-02 12:45:00,
2013-02-02 07:50:00,12.6,7.9,30.23,ESE,114,0.9,2.3,81,0.00,FEW,,0.00,WeatherDisplay:10.37,2013-02-02 12:50:00,
2013-02-02 07:55:00,12.8,8.3,30.23,ESE,114,0.6,2.3,82,0.00,FEW,,0.00,WeatherDisplay:10.37,2013-02-02 12:55:00,
2013-02-02 08:00:00,13.0,8.3,30.24,ESE,114,0.9,3.5,81,0.00,FEW,,0.00,WeatherDisplay:10.37,2013-02-02 13:00:00,
2013-02-02 08:05:00,13.3,8.8,30.24,ESE,114,0.7,3.5,82,0.00,SCT,,0.00,WeatherDisplay:10.37,2013-02-02 13:05:00,
2013-02-02 08:10:00,13.6,8.9,30.24,ESE,114,0.0,0.0,81,0.00,SCT,,0.00,WeatherDisplay:10.37,2013-02-02 13:10:00,
2013-02-02 08:16:00,13.9,9.1,30.24,ESE,114,0.6,2.3,81,0.00,SCT,,0.00,WeatherDisplay:10.37,2013-02-02 13:16:00,
2013-02-02 08:21:00,14.2,9.2,30.24,ESE,114,0.7,2.3,80,0.00,SCT,,0.00,WeatherDisplay:10.37,2013-02-02 13:21:00,
2013-02-02 08:26:00,14.6,9.3,30.24,ESE,114,0.2,1.2,79,0.00,SCT,,0.00,WeatherDisplay:10.37,2013-02-02 13:26:00,
2013-02-02 08:31:00,15.0,9.7,30.23,ESE,111,0.9,3.5,79,0.00,SCT,,0.00,WeatherDisplay:10.37,2013-02-02 13:31:00,
2013-02-02 08:37:00,15.4,9.8,30.23,ESE,111,0.9,3.5,78,0.00,SCT,,0.00,WeatherDisplay:10.37,2013-02-02 13:37:00,
2013-02-02 08:42:00,15.8,10.2,30.23,ESE,111,0.1,1.2,78,0.00,SCT,,0.00,WeatherDisplay:10.37,2013-02-02 13:42:00,
2013-02-02 08:47:00,16.2,10.3,30.23,ESE,111,0.0,1.2,77,0.00,SCT,,0.00,WeatherDisplay:10.37,2013-02-02 13:47:00,
2013-02-02 08:52:00,16.6,9.8,30.23,ESE,111,0.2,3.5,74,0.00,SCT,,0.00,WeatherDisplay:10.37,2013-02-02 13:52:00,
2013-02-02 08:58:00,16.9,9.4,30.23,ESE,111,0.9,3.5,72,0.00,SCT,,0.00,WeatherDisplay:10.37,2013-02-02 13:58:00,
2013-02-02 09:03:00,17.3,9.8,30.23,SSW,212,0.2,3.0,72,0.00,SCT,,0.00,WeatherDisplay:10.37,2013-02-02 14:03:00,
2013-02-02 09:08:00,17.7,9.9,30.23,SSW,211,0.5,3.5,71,0.00,SCT,,0.00,WeatherDisplay:10.37,2013-02-02 14:08:00,
2013-02-02 09:14:00,17.9,10.1,30.23,SSW,211,0.8,3.5,71,0.00,SCT,,0.00,WeatherDisplay:10.37,2013-02-02 14:14:00,
2013-02-02 09:19:00,17.9,9.8,30.23,WSW,247,0.3,2.3,70,0.00,SCT,,0.00,WeatherDisplay:10.37,2013-02-02 14:19:00,
2013-02-02 09:24:00,18.1,10.0,30.23,SSW,198,0.0,3.5,70,0.00,SCT,,0.00,WeatherDisplay:10.37,2013-02-02 14:24:00,
2013-02-02 09:29:00,18.5,10.7,30.23,South,190,0.3,3.5,71,0.00,SCT,,0.00,WeatherDisplay:10.37,2013-02-02 14:29:00,
2013-02-02 09:34:00,18.8,10.6,30.23,SW,230,1.5,3.5,70,0.00,SCT,,0.00,WeatherDisplay:10.37,2013-02-02 14:34:00,
2013-02-02 09:39:00,19.0,10.8,30.23,SW,229,0.2,0.0,70,0.00,SCT,,0.00,WeatherDisplay:10.37,2013-02-02 14:39:00,
2013-02-02 09:44:00,19.1,10.6,30.22,SSW,205,0.7,5.8,69,0.00,SCT,,0.00,WeatherDisplay:10.37,2013-02-02 14:44:00,
2013-02-02 09:49:00,19.2,10.7,30.22,SSW,200,2.1,4.6,69,0.00,SCT,,0.00,WeatherDisplay:10.37,2013-02-02 14:49:00,
2013-02-02 09:55:00,19.5,11.3,30.22,East,98,0.9,4.0,70,0.00,SCT,,0.00,WeatherDisplay:10.37,2013-02-02 14:55:00,
2013-02-02 10:00:00,20.0,12.1,30.22,South,176,3.3,5.0,71,0.00,SCT,,0.00,WeatherDisplay:10.37,2013-02-02 15:00:00,
2013-02-02 10:05:00,20.7,12.1,30.22,SSE,165,0.4,3.5,69,0.00,BKN,,0.00,WeatherDisplay:10.37,2013-02-02 15:05:00,
2013-02-02 10:10:00,21.0,12.4,30.21,South,186,0.5,2.3,69,0.00,BKN,,0.00,WeatherDisplay:10.37,2013-02-02 15:10:00,
2013-02-02 10:15:00,21.3,12.4,30.21,SSW,210,1.0,4.6,68,0.00,BKN,,0.00,WeatherDisplay:10.37,2013-02-02 15:15:00,
2013-02-02 10:21:00,21.5,12.2,30.21,SSW,192,1.1,3.5,67,0.00,BKN,,0.00,WeatherDisplay:10.37,2013-02-02 15:21:00,
2013-02-02 10:26:00,21.8,12.5,30.21,SW,234,0.7,3.5,67,0.00,BKN,,0.00,WeatherDisplay:10.37,2013-02-02 15:26:00,
2013-02-02 10:31:00,22.5,13.2,30.20,South,169,0.5,1.2,67,0.00,BKN,,0.00,WeatherDisplay:10.37,2013-02-02 15:31:00,
2013-02-02 10:37:00,22.8,12.4,30.20,SW,225,0.6,5.0,64,0.00,BKN,,0.00,WeatherDisplay:10.37,2013-02-02 15:37:00,
2013-02-02 10:42:00,22.9,12.5,30.20,West,264,2.0,6.9,64,0.00,BKN,,0.00,WeatherDisplay:10.37,2013-02-02 15:42:00,
2013-02-02 10:47:00,23.4,13.0,30.19,SSW,201,3.8,6.9,64,0.00,BKN,,0.00,WeatherDisplay:10.37,2013-02-02 15:47:00,
2013-02-02 10:52:00,23.8,13.0,30.19,SW,227,1.4,3.5,63,0.00,BKN,,0.00,WeatherDisplay:10.37,2013-02-02 15:52:00,
2013-02-02 10:57:00,24.1,13.7,30.19,South,175,0.9,5.8,64,0.00,BKN,,0.00,WeatherDisplay:10.37,2013-02-02 15:57:00,
2013-02-02 11:02:00,24.0,12.9,30.19,WSW,237,1.0,3.0,62,0.00,BKN,,0.00,WeatherDisplay:10.37,2013-02-02 16:02:00,
2013-02-02 11:08:00,24.1,13.7,30.18,South,170,4.5,5.8,64,0.00,BKN,,0.00,WeatherDisplay:10.37,2013-02-02 16:08:00,
2013-02-02 11:13:00,24.3,13.1,30.18,WSW,249,4.4,6.9,62,0.00,BKN,,0.00,WeatherDisplay:10.37,2013-02-02 16:13:00,
2013-02-02 11:18:00,24.1,12.9,30.18,West,259,1.6,4.6,62,0.00,BKN,,0.00,WeatherDisplay:10.37,2013-02-02 16:18:00,
2013-02-02 11:23:00,24.4,14.0,30.17,WSW,244,1.3,9.2,64,0.00,BKN,,0.00,WeatherDisplay:10.37,2013-02-02 16:23:00,
2013-02-02 11:29:00,25.0,13.8,30.17,SSW,213,0.7,5.8,62,0.00,BKN,,0.00,WeatherDisplay:10.37,2013-02-02 16:29:00,
2013-02-02 11:34:00,25.8,14.9,30.16,West,263,1.9,4.6,63,0.00,BKN,,0.00,WeatherDisplay:10.37,2013-02-02 16:34:00,
2013-02-02 11:39:00,25.9,13.9,30.16,SSW,208,7.7,12.7,60,0.00,BKN,,0.00,WeatherDisplay:10.37,2013-02-02 16:39:00,
2013-02-02 11:44:00,25.5,13.1,30.15,WSW,244,0.5,4.6,59,0.00,BKN,,0.00,WeatherDisplay:10.37,2013-02-02 16:44:00,
2013-02-02 11:50:00,25.6,14.4,30.15,SW,219,1.5,7.0,62,0.00,BKN,,0.00,WeatherDisplay:10.37,2013-02-02 16:50:00,
2013-02-02 11:55:00,26.3,13.9,30.14,SW,217,2.3,5.8,59,0.00,BKN,,0.00,WeatherDisplay:10.37,2013-02-02 16:55:00,
2013-02-02 12:00:00,26.2,13.8,30.14,South,187,2.4,7.0,59,0.00,BKN,,0.00,WeatherDisplay:10.37,2013-02-02 17:00:00,
2013-02-02 12:05:00,26.3,13.9,30.13,SW,219,2.8,11.0,59,0.00,BKN,,0.00,WeatherDisplay:10.37,2013-02-02 17:05:00,
2013-02-02 12:10:00,26.2,14.2,30.13,West,259,2.1,6.9,60,0.00,BKN,,0.00,WeatherDisplay:10.37,2013-02-02 17:10:00,
2013-02-02 12:16:00,26.3,14.3,30.12,SE,128,1.5,5.8,60,0.00,BKN,,0.00,WeatherDisplay:10.37,2013-02-02 17:16:00,
2013-02-02 12:21:00,26.8,15.5,30.12,SE,128,0.0,0.0,62,0.00,BKN,,0.00,WeatherDisplay:10.37,2013-02-02 17:21:00,
2013-02-02 12:26:00,26.6,12.2,30.12,SW,220,6.3,11.5,54,0.00,BKN,,0.00,WeatherDisplay:10.37,2013-02-02 17:26:00,
2013-02-02 12:31:00,26.5,13.3,30.11,South,190,2.6,12.7,57,0.00,BKN,,0.00,WeatherDisplay:10.37,2013-02-02 17:31:00,
2013-02-02 12:36:00,27.0,12.5,30.11,SSE,153,4.2,13.8,54,0.00,BKN,,0.00,WeatherDisplay:10.37,2013-02-02 17:36:00,
2013-02-02 12:42:00,27.0,14.2,30.10,South,182,2.7,7.0,58,0.00,BKN,,0.00,WeatherDisplay:10.37,2013-02-02 17:42:00,
2013-02-02 12:47:00,27.7,14.0,30.10,WSW,238,0.9,4.6,56,0.00,BKN,,0.00,WeatherDisplay:10.37,2013-02-02 17:47:00,
2013-02-02 12:52:00,27.8,12.9,30.09,WSW,249,8.2,11.5,53,0.00,BKN,,0.00,WeatherDisplay:10.37,2013-02-02 17:52:00,
2013-02-02 12:57:00,27.2,12.3,30.09,NE,55,3.7,10.4,53,0.00,BKN,,0.00,WeatherDisplay:10.37,2013-02-02 17:57:00,
2013-02-02 13:02:00,26.8,11.5,30.09,West,271,6.2,15.0,52,0.00,BKN,,0.00,WeatherDisplay:10.37,2013-02-02 18:02:00,
2013-02-02 13:07:00,27.2,12.7,30.09,SW,230,5.7,14.0,54,0.00,BKN,,0.00,WeatherDisplay:10.37,2013-02-02 18:07:00,
2013-02-02 13:13:00,27.4,12.1,30.08,SSE,162,1.1,13.8,52,0.00,BKN,,0.00,WeatherDisplay:10.37,2013-02-02 18:13:00,
2013-02-02 13:18:00,27.7,11.9,30.08,SE,140,3.4,11.5,51,0.00,BKN,,0.00,WeatherDisplay:10.37,2013-02-02 18:18:00,
2013-02-02 13:23:00,27.6,11.8,30.08,SW,226,11.6,19.6,51,0.00,BKN,,0.00,WeatherDisplay:10.37,2013-02-02 18:23:00,
2013-02-02 13:28:00,27.4,11.6,30.08,SSE,165,6.6,17.3,51,0.00,BKN,,0.00,WeatherDisplay:10.37,2013-02-02 18:28:00,
2013-02-02 13:33:00,27.5,11.7,30.07,SW,221,4.9,11.5,51,0.00,BKN,,0.00,WeatherDisplay:10.37,2013-02-02 18:33:00,
2013-02-02 13:38:00,27.1,11.8,30.07,SW,221,2.7,12.0,52,0.00,BKN,,0.00,WeatherDisplay:10.37,2013-02-02 18:38:00,
2013-02-02 13:43:00,27.1,11.8,30.07,SW,217,11.4,19.6,52,0.00,BKN,,0.00,WeatherDisplay:10.37,2013-02-02 18:43:00,
2013-02-02 13:49:00,27.3,12.4,30.07,South,171,2.8,10.4,53,0.00,BKN,,0.00,WeatherDisplay:10.37,2013-02-02 18:49:00,
2013-02-02 13:54:00,27.5,11.7,30.07,SW,221,8.6,18.4,51,0.00,BKN,,0.00,WeatherDisplay:10.37,2013-02-02 18:54:00,
2013-02-02 13:59:00,26.9,11.2,30.07,SSW,201,6.2,10.4,51,0.00,BKN,,0.00,WeatherDisplay:10.37,2013-02-02 18:59:00,
2013-02-02 14:04:00,27.1,11.8,30.06,South,188,11.3,23.0,52,0.00,BKN,,0.00,WeatherDisplay:10.37,2013-02-02 19:04:00,
2013-02-02 14:09:00,27.4,12.1,30.06,SSE,165,11.8,16.1,52,0.00,BKN,,0.00,WeatherDisplay:10.37,2013-02-02 19:09:00,
2013-02-02 14:15:00,27.2,11.0,30.06,SSW,206,6.8,12.7,50,0.00,OVC,,0.00,WeatherDisplay:10.37,2013-02-02 19:15:00,
2013-02-02 14:20:00,27.4,12.1,30.06,SW,230,5.4,13.0,52,0.00,OVC,,0.00,WeatherDisplay:10.37,2013-02-02 19:20:00,
2013-02-02 14:25:00,27.4,11.6,30.06,SSW,209,7.0,16.1,51,0.00,OVC,,0.00,WeatherDisplay:10.37,2013-02-02 19:25:00,
2013-02-02 14:30:00,27.2,11.0,30.06,WSW,238,4.6,10.4,50,0.00,OVC,,0.00,WeatherDisplay:10.37,2013-02-02 19:30:00,
2013-02-02 14:35:00,27.2,11.9,30.06,WSW,240,4.8,9.2,52,0.00,OVC,,0.00,WeatherDisplay:10.37,2013-02-02 19:35:00,
2013-02-02 14:41:00,27.3,12.4,30.06,SW,215,3.5,15.0,53,0.00,OVC,,0.00,WeatherDisplay:10.37,2013-02-02 19:41:00,
2013-02-02 14:46:00,27.3,12.4,30.06,South,175,1.4,6.9,53,0.00,OVC,,0.00,WeatherDisplay:10.37,2013-02-02 19:46:00,
2013-02-02 14:51:00,27.1,11.3,30.06,SW,228,4.6,13.8,51,0.00,OVC,,0.00,WeatherDisplay:10.37,2013-02-02 19:51:00,
2013-02-02 14:56:00,26.6,11.7,30.06,South,175,3.0,18.4,53,0.00,OVC,,0.00,WeatherDisplay:10.37,2013-02-02 19:56:00,
2013-02-02 15:01:00,26.2,11.4,30.05,SSE,163,6.0,16.1,53,0.00,OVC,,0.00,WeatherDisplay:10.37,2013-02-02 20:01:00,
2013-02-02 15:06:00,26.1,11.7,30.05,SSW,202,0.4,5.8,54,0.00,OVC,,0.00,WeatherDisplay:10.37,2013-02-02 20:06:00,
2013-02-02 15:12:00,25.9,10.7,30.05,SSW,213,3.4,11.5,52,0.00,-SN,,0.00,WeatherDisplay:10.37,2013-02-02 20:12:00,
2013-02-02 15:17:00,25.8,11.0,30.05,South,185,1.9,4.6,53,0.00,-SN,,0.00,WeatherDisplay:10.37,2013-02-02 20:17:00,
2013-02-02 15:22:00,25.9,11.5,30.05,SSW,197,4.0,10.4,54,0.00,-SN,,0.00,WeatherDisplay:10.37,2013-02-02 20:22:00,
2013-02-02 15:28:00,25.9,10.7,30.05,SSW,208,0.1,12.7,52,0.00,-SN,,0.00,WeatherDisplay:10.37,2013-02-02 20:28:00,
2013-02-02 15:33:00,25.8,10.6,30.05,South,184,2.4,9.2,52,0.00,-SN,,0.00,WeatherDisplay:10.37,2013-02-02 20:33:00,
2013-02-02 15:38:00,25.9,11.1,30.05,South,180,1.7,9.0,53,0.00,-SN,,0.00,WeatherDisplay:10.37,2013-02-02 20:38:00,
2013-02-02 15:43:00,25.9,11.1,30.04,SE,134,5.5,11.5,53,0.00,-SN,,0.00,WeatherDisplay:10.37,2013-02-02 20:43:00,
2013-02-02 15:49:00,25.9,11.1,30.04,SSE,157,5.2,10.4,53,0.00,-SN,,0.00,WeatherDisplay:10.37,2013-02-02 20:49:00,
2013-02-02 15:54:00,25.8,11.0,30.04,South,191,0.5,4.6,53,0.00,-SN,,0.00,WeatherDisplay:10.37,2013-02-02 20:54:00,
2013-02-02 15:59:00,25.9,11.5,30.04,SSW,211,3.7,15.0,54,0.00,-SN,,0.00,WeatherDisplay:10.37,2013-02-02 20:59:00,
2013-02-02 16:04:00,25.9,11.9,30.04,WSW,238,3.6,11.5,55,0.00,-SN,,0.00,WeatherDisplay:10.37,2013-02-02 21:04:00,
2013-02-02 16:09:00,25.8,11.4,30.04,WSW,246,4.0,15.0,54,0.00,-SN,,0.00,WeatherDisplay:10.37,2013-02-02 21:09:00,
2013-02-02 16:15:00,25.7,11.3,30.04,SW,221,3.9,10.4,54,0.00,-SN,,0.00,WeatherDisplay:10.37,2013-02-02 21:15:00,
2013-02-02 16:20:00,25.7,11.3,30.04,SW,232,4.6,10.4,54,0.00,-SN,,0.00,WeatherDisplay:10.37,2013-02-02 21:20:00,
2013-02-02 16:25:00,25.7,11.3,30.04,SW,215,2.1,4.0,54,0.00,-SN,,0.00,WeatherDisplay:10.37,2013-02-02 21:25:00,
2013-02-02 16:30:00,25.6,11.2,30.04,WSW,244,6.1,20.7,54,0.00,-SN,,0.00,WeatherDisplay:10.37,2013-02-02 21:30:00,
2013-02-02 16:36:00,25.6,11.2,30.04,SW,223,6.2,7.0,54,0.00,-SN,,0.00,WeatherDisplay:10.37,2013-02-02 21:36:00,
2013-02-02 16:41:00,25.5,11.1,30.04,SW,214,2.9,11.5,54,0.00,-SN,,0.00,WeatherDisplay:10.37,2013-02-02 21:41:00,
2013-02-02 16:46:00,25.5,10.7,30.04,SE,140,5.6,11.5,53,0.00,-SN,,0.00,WeatherDisplay:10.37,2013-02-02 21:46:00,
2013-02-02 16:51:00,25.5,10.7,30.03,SSW,207,1.1,11.5,53,0.00,-SN,,0.00,WeatherDisplay:10.37,2013-02-02 21:51:00,
2013-02-02 16:56:00,25.4,10.6,30.03,SE,146,4.5,13.8,53,0.00,-SN,,0.00,WeatherDisplay:10.37,2013-02-02 21:56:00,
2013-02-02 17:01:00,25.5,10.3,30.04,SW,221,2.0,4.6,52,0.00,OVC,,0.00,WeatherDisplay:10.37,2013-02-02 22:01:00,
2013-02-02 17:06:00,25.4,11.0,30.04,SSE,163,0.8,3.5,54,0.00,OVC,,0.00,WeatherDisplay:10.37,2013-02-02 22:06:00,
2013-02-02 17:12:00,25.3,11.4,30.04,SSW,195,2.5,7.0,55,0.00,OVC,,0.00,WeatherDisplay:10.37,2013-02-02 22:12:00,
2013-02-02 17:17:00,25.2,10.9,30.04,South,185,4.8,13.0,54,0.00,OVC,,0.00,WeatherDisplay:10.37,2013-02-02 22:17:00,
2013-02-02 17:22:00,25.2,10.9,30.04,South,182,4.6,12.7,54,0.00,OVC,,0.00,WeatherDisplay:10.37,2013-02-02 22:22:00,
2013-02-02 17:27:00,25.1,11.2,30.04,SW,233,2.9,10.4,55,0.00,OVC,,0.00,WeatherDisplay:10.37,2013-02-02 22:27:00,
2013-02-02 17:32:00,25.0,11.1,30.04,WSW,250,1.6,6.9,55,0.00,OVC,,0.00,WeatherDisplay:10.37,2013-02-02 22:32:00,
2013-02-02 17:38:00,24.9,11.4,30.04,WSW,249,2.5,9.2,56,0.00,OVC,,0.00,WeatherDisplay:10.37,2013-02-02 22:38:00,
2013-02-02 17:43:00,24.9,11.4,30.04,SSE,157,3.2,13.0,56,0.00,OVC,,0.00,WeatherDisplay:10.37,2013-02-02 22:43:00,
2013-02-02 17:48:00,24.9,11.4,30.04,SSW,213,2.4,10.4,56,0.00,OVC,,0.00,WeatherDisplay:10.37,2013-02-02 22:48:00,
2013-02-02 17:53:00,24.9,11.4,30.04,South,187,3.8,6.9,56,0.00,OVC,,0.00,WeatherDisplay:10.37,2013-02-02 22:53:00,
2013-02-02 17:58:00,24.9,11.4,30.05,South,182,1.9,6.9,56,0.00,OVC,,0.00,WeatherDisplay:10.37,2013-02-02 22:58:00,
2013-02-02 18:03:00,24.9,11.4,30.05,SW,227,5.3,10.4,56,0.00,OVC,,0.00,WeatherDisplay:10.37,2013-02-02 23:03:00,
2013-02-02 18:08:00,24.8,11.3,30.05,SSW,202,6.0,15.0,56,0.00,OVC,,0.00,WeatherDisplay:10.37,2013-02-02 23:08:00,
2013-02-02 18:14:00,24.8,11.3,30.05,SSW,208,1.4,5.8,56,0.00,OVC,,0.00,WeatherDisplay:10.37,2013-02-02 23:14:00,
2013-02-02 18:19:00,24.8,11.7,30.05,WNW,302,2.8,6.0,57,0.00,OVC,,0.00,WeatherDisplay:10.37,2013-02-02 23:19:00,
2013-02-02 18:24:00,24.7,11.6,30.05,SSE,155,5.9,12.7,57,0.00,OVC,,0.00,WeatherDisplay:10.37,2013-02-02 23:24:00,
2013-02-02 18:29:00,24.6,11.9,30.05,SW,221,8.9,17.3,58,0.00,OVC,,0.00,WeatherDisplay:10.37,2013-02-02 23:29:00,
2013-02-02 18:34:00,24.5,11.8,30.05,SSE,165,10.3,19.6,58,0.00,OVC,,0.00,WeatherDisplay:10.37,2013-02-02 23:34:00,
2013-02-02 18:40:00,24.5,12.2,30.05,South,178,3.0,13.0,59,0.00,OVC,,0.00,WeatherDisplay:10.37,2013-02-02 23:40:00,
2013-02-02 18:45:00,24.4,12.9,30.05,South,189,7.9,13.8,61,0.00,OVC,,0.00,WeatherDisplay:10.37,2013-02-02 23:45:00,
2013-02-02 18:50:00,24.2,12.7,30.05,SW,215,4.8,13.8,61,0.00,OVC,,0.00,WeatherDisplay:10.37,2013-02-02 23:50:00,
2013-02-02 18:55:00,24.2,12.7,30.05,SSW,213,8.4,12.0,61,0.00,OVC,,0.00,WeatherDisplay:10.37,2013-02-02 23:55:00,
2013-02-02 19:00:00,24.1,13.3,30.05,SSW,213,6.3,10.0,63,0.00,OVC,,0.00,WeatherDisplay:10.37,2013-02-03 00:00:00,
2013-02-02 19:06:00,24.0,13.2,30.05,SSE,159,3.9,12.7,63,0.00,OVC,,0.00,WeatherDisplay:10.37,2013-02-03 00:06:00,
2013-02-02 19:11:00,23.9,13.5,30.05,SSW,192,4.8,11.0,64,0.00,OVC,,0.00,WeatherDisplay:10.37,2013-02-03 00:11:00,
2013-02-02 19:16:00,23.8,13.7,30.05,SW,236,3.9,9.2,65,0.00,OVC,,0.00,WeatherDisplay:10.37,2013-02-03 00:16:00,
2013-02-02 19:21:00,23.8,13.7,30.06,SW,222,4.1,11.5,65,0.00,OVC,,0.00,WeatherDisplay:10.37,2013-02-03 00:21:00,
2013-02-02 19:27:00,23.7,13.6,30.06,SW,230,4.5,11.5,65,0.00,OVC,,0.00,WeatherDisplay:10.37,2013-02-03 00:27:00,
2013-02-02 19:32:00,23.6,13.9,30.06,SW,216,1.3,5.0,66,0.00,OVC,,0.00,WeatherDisplay:10.37,2013-02-03 00:32:00,
2013-02-02 19:37:00,23.6,13.9,30.06,SSW,209,4.4,6.9,66,0.00,OVC,,0.00,WeatherDisplay:10.37,2013-02-03 00:37:00,
2013-02-02 19:42:00,23.5,14.1,30.06,SW,225,0.7,3.5,67,0.00,OVC,,0.00,WeatherDisplay:10.37,2013-02-03 00:42:00,
2013-02-02 19:47:00,23.5,14.1,30.06,SW,236,1.6,4.0,67,0.00,OVC,,0.00,WeatherDisplay:10.37,2013-02-03 00:47:00,
2013-02-02 19:53:00,23.4,14.0,30.06,WSW,251,1.6,3.5,67,0.00,OVC,,0.00,WeatherDisplay:10.37,2013-02-03 00:53:00,
2013-02-02 19:58:00,23.4,14.0,30.06,WSW,250,1.3,4.0,67,0.00,OVC,,0.00,WeatherDisplay:10.37,2013-02-03 00:58:00,
2013-02-02 20:03:00,23.4,14.4,30.06,NNW,334,0.0,1.2,68,0.00,OVC,,0.00,WeatherDisplay:10.37,2013-02-03 01:03:00,
2013-02-02 20:08:00,23.3,15.9,30.06,NW,305,2.2,5.8,73,0.00,OVC,,0.00,WeatherDisplay:10.37,2013-02-03 01:08:00,
2013-02-02 20:14:00,23.0,15.9,30.07,North,5,3.4,5.8,74,0.00,OVC,,0.00,WeatherDisplay:10.37,2013-02-03 01:14:00,
2013-02-02 20:19:00,22.8,16.4,30.07,North,355,0.6,5.8,76,0.00,OVC,,0.00,WeatherDisplay:10.37,2013-02-03 01:19:00,
2013-02-02 20:24:00,22.5,16.4,30.07,NW,325,2.2,5.8,77,0.00,OVC,,0.00,WeatherDisplay:10.37,2013-02-03 01:24:00,
2013-02-02 20:29:00,22.3,16.5,30.07,NW,319,0.4,3.5,78,0.00,OVC,,0.00,WeatherDisplay:10.37,2013-02-03 01:29:00,
2013-02-02 20:34:00,22.1,16.6,30.07,NNW,327,0.9,2.3,79,0.00,OVC,,0.00,WeatherDisplay:10.37,2013-02-03 01:34:00,
2013-02-02 20:40:00,21.8,16.6,30.07,NNW,337,0.9,3.0,80,0.00,OVC,,0.00,WeatherDisplay:10.37,2013-02-03 01:40:00,
2013-02-02 20:45:00,21.7,16.8,30.07,NW,304,0.9,2.3,81,0.00,OVC,,0.00,WeatherDisplay:10.37,2013-02-03 01:45:00,
2013-02-02 20:50:00,21.6,17.0,30.07,NW,315,0.5,2.3,82,0.00,OVC,,0.00,WeatherDisplay:10.37,2013-02-03 01:50:00,
2013-02-02 20:55:00,21.5,16.9,30.07,NNW,331,0.0,0.0,82,0.00,OVC,,0.00,WeatherDisplay:10.37,2013-02-03 01:55:00,
2013-02-02 21:01:00,21.5,16.9,30.07,NNW,336,0.3,0.0,82,0.00,OVC,,0.00,WeatherDisplay:10.37,2013-02-03 02:01:00,
2013-02-02 21:06:00,21.5,17.1,30.07,NNW,336,0.0,0.0,83,0.00,OVC,,0.00,WeatherDisplay:10.37,2013-02-03 02:06:00,
2013-02-02 21:11:00,21.4,17.0,30.07,NNW,336,0.0,0.0,83,0.00,BKN,,0.00,WeatherDisplay:10.37,2013-02-03 02:11:00,
2013-02-02 21:16:00,21.4,17.0,30.07,NNW,339,0.0,1.2,83,0.00,BKN,,0.00,WeatherDisplay:10.37,2013-02-03 02:16:00,
2013-02-02 21:22:00,21.3,16.9,30.07,NNW,341,0.0,2.3,83,0.00,BKN,,0.00,WeatherDisplay:10.37,2013-02-03 02:22:00,
2013-02-02 21:27:00,21.3,16.9,30.07,NNW,341,0.0,0.0,83,0.00,BKN,,0.00,WeatherDisplay:10.37,2013-02-03 02:27:00,
2013-02-02 21:32:00,21.3,17.2,30.07,NNW,341,0.0,0.0,84,0.00,BKN,,0.00,WeatherDisplay:10.37,2013-02-03 02:32:00,
2013-02-02 21:37:00,21.2,17.1,30.07,NNW,341,0.0,0.0,84,0.00,BKN,,0.00,WeatherDisplay:10.37,2013-02-03 02:37:00,
2013-02-02 21:43:00,21.1,17.0,30.07,NNW,341,0.0,0.0,84,0.00,BKN,,0.00,WeatherDisplay:10.37,2013-02-03 02:43:00,
2013-02-02 21:48:00,20.9,16.5,30.07,NNW,341,0.0,0.0,83,0.00,BKN,,0.00,WeatherDisplay:10.37,2013-02-03 02:48:00,
2013-02-02 21:53:00,20.8,16.5,30.07,NNW,341,0.0,0.0,83,0.00,BKN,,0.00,WeatherDisplay:10.37,2013-02-03 02:53:00,
2013-02-02 21:58:00,20.7,16.4,30.07,NNW,341,0.0,0.0,83,0.00,BKN,,0.00,WeatherDisplay:10.37,2013-02-03 02:58:00,
2013-02-02 22:03:00,20.6,16.3,30.07,NNW,341,0.0,0.0,83,0.00,OVC,,0.00,WeatherDisplay:10.37,2013-02-03 03:03:00,
2013-02-02 22:09:00,20.6,16.3,30.07,NNW,341,0.0,0.0,83,0.00,OVC,,0.00,WeatherDisplay:10.37,2013-02-03 03:09:00,
2013-02-02 22:14:00,20.5,16.2,30.07,NNW,341,0.0,0.0,83,0.00,OVC,,0.00,WeatherDisplay:10.37,2013-02-03 03:14:00,
2013-02-02 22:19:00,20.5,16.2,30.07,NNW,341,0.0,0.0,83,0.00,OVC,,0.00,WeatherDisplay:10.37,2013-02-03 03:19:00,
2013-02-02 22:24:00,20.4,16.1,30.07,NNW,341,0.0,0.0,83,0.00,OVC,,0.00,WeatherDisplay:10.37,2013-02-03 03:24:00,
2013-02-02 22:29:00,20.4,16.3,30.07,ENE,61,0.0,1.2,84,0.00,OVC,,0.00,WeatherDisplay:10.37,2013-02-03 03:29:00,
2013-02-02 22:34:00,20.5,16.4,30.06,ENE,61,0.0,2.3,84,0.00,OVC,,0.00,WeatherDisplay:10.37,2013-02-03 03:34:00,
2013-02-02 22:39:00,20.5,16.7,30.06,ENE,62,0.0,0.0,85,0.00,OVC,,0.00,WeatherDisplay:10.37,2013-02-03 03:39:00,
2013-02-02 22:45:00,20.6,17.1,30.06,ENE,63,0.0,0.0,86,0.00,OVC,,0.00,WeatherDisplay:10.37,2013-02-03 03:45:00,
2013-02-02 22:50:00,20.6,17.1,30.06,ENE,63,0.0,0.0,86,0.00,OVC,,0.00,WeatherDisplay:10.37,2013-02-03 03:50:00,
2013-02-02 22:55:00,20.6,17.3,30.06,ENE,63,0.1,1.2,87,0.00,OVC,,0.00,WeatherDisplay:10.37,2013-02-03 03:55:00,
2013-02-02 23:00:00,20.6,17.3,30.06,ENE,63,0.1,1.0,87,0.00,OVC,,0.00,WeatherDisplay:10.37,2013-02-03 04:00:00,
2013-02-02 23:05:00,20.6,17.3,30.06,SE,124,0.0,0.0,87,0.00,OVC,,0.00,WeatherDisplay:10.37,2013-02-03 04:05:00,
2013-02-02 23:10:00,20.6,17.3,30.06,ESE,123,0.0,0.0,87,0.00,OVC,,0.00,WeatherDisplay:10.37,2013-02-03 04:10:00,
2013-02-02 23:15:00,20.6,17.3,30.06,ESE,123,0.0,2.0,87,0.00,OVC,,0.00,WeatherDisplay:10.37,2013-02-03 04:15:00,
2013-02-02 23:21:00,20.5,17.5,30.06,ESE,123,0.0,0.0,88,0.00,OVC,,0.00,WeatherDisplay:10.37,2013-02-03 04:21:00,
2013-02-02 23:26:00,20.5,17.2,30.06,ESE,123,0.0,1.2,87,0.00,OVC,,0.00,WeatherDisplay:10.37,2013-02-03 04:26:00,
2013-02-02 23:31:00,20.5,17.5,30.06,ESE,123,0.0,0.0,88,0.00,OVC,,0.00,WeatherDisplay:10.37,2013-02-03 04:31:00,
2013-02-02 23:36:00,20.5,17.5,30.06,ESE,123,0.0,0.0,88,0.00,OVC,,0.00,WeatherDisplay:10.37,2013-02-03 04:36:00,
2013-02-02 23:42:00,20.5,17.5,30.06,ESE,123,0.0,0.0,88,0.00,OVC,,0.00,WeatherDisplay:10.37,2013-02-03 04:42:00,
2013-02-02 23:47:00,20.4,17.4,30.06,ESE,123,0.0,0.0,88,0.00,OVC,,0.00,WeatherDisplay:10.37,2013-02-03 04:47:00,
2013-02-02 23:52:00,20.4,17.4,30.06,ESE,123,0.0,0.0,88,0.00,OVC,,0.00,WeatherDisplay:10.37,2013-02-03 04:52:00,
2013-02-02 23:57:00,20.4,17.4,30.05,SE,124,0.0,0.0,88,0.00,OVC,,0.00,WeatherDisplay:10.37,2013-02-03 04:57:00,